Time,TemperatureF,DewpointF,PressureIn,WindDirection,WindDirectionDegrees,WindSpeedMPH,WindSpeedGustMPH,Humidity,HourlyPrecipIn,Conditions,Clouds,dailyrainin,SoftwareType,DateUTC
2017-10-23 00:12:00,-999.9,-99.9,30.23,North,-9999,-999.9,-999.0,-999,0.00,,,0.00,weatherlink.com 1.10,2017-10-23 04:12:00,
2017-10-23 00:27:00,-999.9,-99.9,30.23,North,-9999,-999.9,-999.0,-999,0.00,,,0.00,weatherlink.com 1.10,2017-10-23 04:27:00,
2017-10-23 00:42:00,-999.9,-99.9,30.23,North,-9999,-999.9,-999.0,-999,0.00,,,0.00,weatherlink.com 1.10,2017-10-23 04:42:00,
2017-10-23 00:57:00,-999.9,-99.9,30.23,North,-9999,-999.9,-999.0,-999,0.00,,,0.00,weatherlink.com 1.10,2017-10-23 04:57:00,
2017-10-23 01:13:00,-999.9,-99.9,30.22,North,-9999,-999.9,-999.0,-999,0.00,,,0.00,weatherlink.com 1.10,2017-10-23 05:13:00,
2017-10-23 01:27:00,-999.9,-99.9,30.22,North,-9999,-999.9,-999.0,-999,0.00,,,0.00,weatherlink.com 1.10,2017-10-23 05:27:00,
2017-10-23 01:42:00,-999.9,-99.9,30.22,North,-9999,-999.9,-999.0,-999,0.00,,,0.00,weatherlink.com 1.10,2017-10-23 05:42:00,
2017-10-23 01:57:00,-999.9,-99.9,30.21,North,-9999,-999.9,-999.0,-999,0.00,,,0.00,weatherlink.com 1.10,2017-10-23 05:57:00,
2017-10-23 02:13:00,-999.9,-99.9,30.21,North,-9999,-999.9,-999.0,-999,0.00,,,0.00,weatherlink.com 1.10,2017-10-23 06:13:00,
2017-10-23 02:28:00,-999.9,-99.9,30.21,North,-9999,-999.9,-999.0,-999,0.00,,,0.00,weatherlink.com 1.10,2017-10-23 06:28:00,
2017-10-23 02:43:00,-999.9,-99.9,30.21,North,-9999,-999.9,-999.0,-999,0.00,,,0.00,weatherlink.com 1.10,2017-10-23 06:43:00,
2017-10-23 02:58:00,-999.9,-99.9,30.21,North,-9999,-999.9,-999.0,-999,0.00,,,0.00,weatherlink.com 1.10,2017-10-23 06:58:00,
2017-10-23 03:13:00,-999.9,-99.9,30.21,North,-9999,-999.9,-999.0,-999,0.00,,,0.00,weatherlink.com 1.10,2017-10-23 07:13:00,
2017-10-23 03:28:00,-999.9,-99.9,30.20,North,-9999,-999.9,-999.0,-999,0.00,,,0.00,weatherlink.com 1.10,2017-10-23 07:28:00,
2017-10-23 03:43:00,-999.9,-99.9,30.20,North,-9999,-999.9,-999.0,-999,0.00,,,0.00,weatherlink.com 1.10,2017-10-23 07:43:00,
2017-10-23 03:58:00,-999.9,-99.9,30.19,North,-9999,-999.9,-999.0,-999,0.00,,,0.00,weatherlink.com 1.10,2017-10-23 07:58:00,
2017-10-23 04:13:00,-999.9,-99.9,30.19,North,-9999,-999.9,-999.0,-999,0.00,,,0.00,weatherlink.com 1.10,2017-10-23 08:13:00,
2017-10-23 04:28:00,-999.9,-99.9,30.19,North,-9999,-999.9,-999.0,-999,0.00,,,0.00,weatherlink.com 1.10,2017-10-23 08:28:00,
2017-10-23 04:43:00,-999.9,-99.9,30.18,North,-9999,-999.9,-999.0,-999,0.00,,,0.00,weatherlink.com 1.10,2017-10-23 08:43:00,
2017-10-23 04:58:00,-999.9,-99.9,30.18,North,-9999,-999.9,-999.0,-999,0.00,,,0.00,weatherlink.com 1.10,2017-10-23 08:58:00,
2017-10-23 05:13:00,-999.9,-99.9,30.17,North,-9999,-999.9,-999.0,-999,0.00,,,0.00,weatherlink.com 1.10,2017-10-23 09:13:00,
2017-10-23 05:28:00,-999.9,-99.9,30.17,North,-9999,-999.9,-999.0,-999,0.00,,,0.00,weatherlink.com 1.10,2017-10-23 09:28:00,
2017-10-23 05:44:00,-999.9,-99.9,30.17,North,-9999,-999.9,-999.0,-999,0.00,,,0.00,weatherlink.com 1.10,2017-10-23 09:44:00,
2017-10-23 05:59:00,-999.9,-99.9,30.17,North,-9999,-999.9,-999.0,-999,0.00,,,0.00,weatherlink.com 1.10,2017-10-23 09:59:00,
2017-10-23 06:14:00,-999.9,-99.9,30.16,North,-9999,-999.9,-999.0,-999,0.00,,,0.00,weatherlink.com 1.10,2017-10-23 10:14:00,
2017-10-23 06:29:00,-999.9,-99.9,30.16,North,-9999,-999.9,-999.0,-999,0.00,,,0.00,weatherlink.com 1.10,2017-10-23 10:29:00,
2017-10-23 06:44:00,-999.9,-99.9,30.16,North,-9999,-999.9,-999.0,-999,0.00,,,0.00,weatherlink.com 1.10,2017-10-23 10:44:00,
2017-10-23 06:59:00,-999.9,-99.9,30.15,North,-9999,-999.9,-999.0,-999,0.00,,,0.00,weatherlink.com 1.10,2017-10-23 10:59:00,
2017-10-23 07:14:00,-999.9,-99.9,30.15,North,-9999,-999.9,-999.0,-999,0.00,,,0.00,weatherlink.com 1.10,2017-10-23 11:14:00,
2017-10-23 07:29:00,-999.9,-99.9,30.14,North,-9999,-999.9,-999.0,-999,0.00,,,0.00,weatherlink.com 1.10,2017-10-23 11:29:00,
2017-10-23 07:44:00,-999.9,-99.9,30.14,North,-9999,-999.9,-999.0,-999,0.00,,,0.00,weatherlink.com 1.10,2017-10-23 11:44:00,
2017-10-23 07:59:00,-999.9,-99.9,30.14,North,-9999,-999.9,-999.0,-999,0.00,,,0.00,weatherlink.com 1.10,2017-10-23 11:59:00,
2017-10-23 08:14:00,-999.9,-99.9,30.14,North,-9999,-999.9,-999.0,-999,0.00,,,0.00,weatherlink.com 1.10,2017-10-23 12:14:00,
2017-10-23 08:29:00,59.0,56.0,30.13,East,98,0.0,5.0,90,0.00,,,0.00,weatherlink.com 1.10,2017-10-23 12:29:00,
2017-10-23 08:45:00,60.5,56.0,30.13,East,92,0.0,4.0,86,0.00,,,0.00,weatherlink.com 1.10,2017-10-23 12:45:00,
2017-10-23 09:00:00,61.6,57.0,30.13,ENE,57,1.0,2.0,84,0.00,,,0.00,weatherlink.com 1.10,2017-10-23 13:00:00,
2017-10-23 09:15:00,62.7,57.0,30.13,WSW,257,1.0,4.0,82,0.00,,,0.00,weatherlink.com 1.10,2017-10-23 13:15:00,
2017-10-23 09:30:00,63.5,58.0,30.12,NE,36,1.0,5.0,81,0.00,,,0.00,weatherlink.com 1.10,2017-10-23 13:30:00,
2017-10-23 09:45:00,64.0,58.0,30.11,West,266,0.0,1.0,81,0.00,,,0.00,weatherlink.com 1.10,2017-10-23 13:45:00,
2017-10-23 10:00:00,64.3,58.0,30.11,ENE,66,4.0,6.0,80,0.00,,,0.00,weatherlink.com 1.10,2017-10-23 14:00:00,
2017-10-23 10:15:00,64.7,58.0,30.10,WNW,300,2.0,5.0,80,0.00,,,0.00,weatherlink.com 1.10,2017-10-23 14:15:00,
2017-10-23 10:30:00,65.2,59.0,30.10,ESE,109,0.0,6.0,79,0.00,,,0.00,weatherlink.com 1.10,2017-10-23 14:30:00,
2017-10-23 10:45:00,65.6,59.0,30.09,ENE,61,0.0,8.0,78,0.00,,,0.00,weatherlink.com 1.10,2017-10-23 14:45:00,
2017-10-23 11:00:00,65.8,58.0,30.09,NW,311,2.0,10.0,77,0.00,,,0.00,weatherlink.com 1.10,2017-10-23 15:00:00,
2017-10-23 11:15:00,66.3,59.0,30.09,ENE,57,3.0,7.0,77,0.00,,,0.00,weatherlink.com 1.10,2017-10-23 15:15:00,
2017-10-23 11:30:00,67.6,60.0,30.08,ENE,74,2.0,5.0,76,0.00,,,0.00,weatherlink.com 1.10,2017-10-23 15:30:00,
2017-10-23 11:45:00,68.6,60.0,30.07,WNW,292,6.0,8.0,73,0.00,,,0.00,weatherlink.com 1.10,2017-10-23 15:45:00,
2017-10-23 12:00:00,68.3,59.0,30.08,NE,50,3.0,7.0,73,0.00,,,0.00,weatherlink.com 1.10,2017-10-23 16:00:00,
2017-10-23 12:15:00,68.2,59.0,30.07,ENE,68,0.0,5.0,73,0.00,,,0.00,weatherlink.com 1.10,2017-10-23 16:15:00,
2017-10-23 12:30:00,69.1,60.0,30.05,ESE,117,4.0,4.0,73,0.00,,,0.00,weatherlink.com 1.10,2017-10-23 16:30:00,
2017-10-23 12:46:00,69.4,60.0,30.04,East,81,5.0,8.0,72,0.00,,,0.00,weatherlink.com 1.10,2017-10-23 16:46:00,
2017-10-23 13:00:00,69.4,60.0,30.02,ENE,71,3.0,7.0,71,0.00,,,0.00,weatherlink.com 1.10,2017-10-23 17:00:00,
2017-10-23 13:15:00,68.4,59.0,30.00,ESE,107,0.0,10.0,73,0.00,,,0.00,weatherlink.com 1.10,2017-10-23 17:15:00,
2017-10-23 13:30:00,66.7,60.0,29.99,ESE,107,0.0,5.0,79,0.00,,,0.00,weatherlink.com 1.10,2017-10-23 17:30:00,
2017-10-23 13:45:00,65.8,60.0,29.97,SE,124,0.0,5.0,81,0.01,,,0.01,weatherlink.com 1.10,2017-10-23 17:45:00,
2017-10-23 14:15:00,66.0,59.0,29.97,ENE,75,1.0,5.0,79,0.01,,,0.01,weatherlink.com 1.10,2017-10-23 18:15:00,
2017-10-23 14:30:00,64.2,60.0,29.95,ESE,112,4.0,4.0,85,0.07,,,0.07,weatherlink.com 1.10,2017-10-23 18:30:00,
2017-10-23 14:46:00,63.0,60.0,29.95,ESE,106,0.0,4.0,89,0.06,,,0.07,weatherlink.com 1.10,2017-10-23 18:46:00,
2017-10-23 15:00:00,63.0,60.0,29.95,ESE,108,2.0,4.0,90,0.07,,,0.08,weatherlink.com 1.10,2017-10-23 19:00:00,
2017-10-23 15:16:00,62.8,60.0,29.94,ESE,120,0.0,5.0,90,0.07,,,0.08,weatherlink.com 1.10,2017-10-23 19:16:00,
2017-10-23 15:31:00,62.9,60.0,29.93,WNW,284,0.0,7.0,89,0.02,,,0.09,weatherlink.com 1.10,2017-10-23 19:31:00,
2017-10-23 15:46:00,62.7,60.0,29.91,WNW,283,0.0,4.0,90,0.02,,,0.09,weatherlink.com 1.10,2017-10-23 19:46:00,